Ken Orchid — A8VZ2 — position and weather

sailwx.info

Track history (hours):
 
Tides and Currents Weather Stations Pressure Air Temp Water Temp Dewpoint Dewpoint Depression Visibility Wind Speed Wind Dir Waves Ship Positions

Ken Orchid

Last reported at 2015-Jul-11 19:12 UTC. Time now 2015-Sep-01 16:14 UTC.
Position N 01°10' E 103°47'.
Warning: this ship's position is 51 days out of date.

Length 169 m; draft 9.9 m.

Type: Ship. MMSI: 636014693.

Date/timePositionNaut miles runAvg speedWind from/ knotsBaromVisibWave heightAir tempDewpointWater temp
2015-Jul-11 19:12N 01°10' E 103°47'710.3
2015-Jul-11 18:33N 01°13' E 103°53'2 1.8
2015-Jul-11 17:10N 01°15' E 103°54'0 0.0
2015-Jul-11 16:28N 01°15' E 103°54'0 0.0
2015-Jul-11 15:28N 01°15' E 103°54'0 0.0
2015-Jul-11 14:25N 01°15' E 103°54'0 0.0
2015-Jul-11 13:31N 01°15' E 103°54'0 0.1
2015-Jul-11 12:28N 01°15' E 103°54'0 0.1
2015-Jul-11 11:16N 01°15' E 103°54'0 0.1
2015-Jul-11 10:31N 01°15' E 103°53'0 0.0
2015-Jul-11 09:31N 01°15' E 103°53'0 0.0
2015-Jul-11 08:25N 01°15' E 103°53'0 0.0
2015-Jul-11 07:31N 01°15' E 103°53'0 0.1
2015-Jul-11 06:10N 01°15' E 103°54'0 0.1
2015-Jul-11 05:28N 01°15' E 103°54'0 0.1
2015-Jul-11 04:31N 01°15' E 103°54'0 0.1
2015-Jul-11 03:28N 01°15' E 103°54'0 0.0
2015-Jul-11 02:28N 01°15' E 103°54'0 0.0
2015-Jul-11 01:25N 01°15' E 103°54'0 0.0
2015-Jul-11 00:28N 01°15' E 103°54'0 0.1
2015-Jul-10 23:33N 01°15' E 103°54'1 1.0
2015-Jul-10 22:33N 01°14' E 103°53'4 4.2
2015-Jul-10 21:33N 01°15' E 103°58'8 8.1
2015-Jul-10 20:33N 01°16' E 104°06'  
Track history (hours):
 
Tides and Currents Weather Stations Pressure Air Temp Water Temp Dewpoint Dewpoint Depression Visibility Wind Speed Wind Dir Waves Ship Positions

Ken Orchid

Last reported at 2015-Jul-11 19:12 UTC. Time now 2015-Sep-01 16:14 UTC.
Position N 01°10' E 103°47'.
Warning: this ship's position is 51 days out of date.

Length 169 m; draft 9.9 m.

Type: Ship. MMSI: 636014693.

Date/timePositionNaut miles runAvg speedWind from/ knotsBaromVisibWave heightAir tempDewpointWater temp
2015-Jul-11 19:12N 01°10' E 103°47'710.3
2015-Jul-11 18:33N 01°13' E 103°53'2 1.8
2015-Jul-11 17:10N 01°15' E 103°54'0 0.0
2015-Jul-11 16:28N 01°15' E 103°54'0 0.0
2015-Jul-11 15:28N 01°15' E 103°54'0 0.0
2015-Jul-11 14:25N 01°15' E 103°54'0 0.0
2015-Jul-11 13:31N 01°15' E 103°54'0 0.1
2015-Jul-11 12:28N 01°15' E 103°54'0 0.1
2015-Jul-11 11:16N 01°15' E 103°54'0 0.1
2015-Jul-11 10:31N 01°15' E 103°53'0 0.0
2015-Jul-11 09:31N 01°15' E 103°53'0 0.0
2015-Jul-11 08:25N 01°15' E 103°53'0 0.0
2015-Jul-11 07:31N 01°15' E 103°53'0 0.1
2015-Jul-11 06:10N 01°15' E 103°54'0 0.1
2015-Jul-11 05:28N 01°15' E 103°54'0 0.1
2015-Jul-11 04:31N 01°15' E 103°54'0 0.1
2015-Jul-11 03:28N 01°15' E 103°54'0 0.0
2015-Jul-11 02:28N 01°15' E 103°54'0 0.0
2015-Jul-11 01:25N 01°15' E 103°54'0 0.0
2015-Jul-11 00:28N 01°15' E 103°54'0 0.1
2015-Jul-10 23:33N 01°15' E 103°54'1 1.0
2015-Jul-10 22:33N 01°14' E 103°53'4 4.2
2015-Jul-10 21:33N 01°15' E 103°58'8 8.1
2015-Jul-10 20:33N 01°16' E 104°06'  

Dump ship's entire track history